createdAt,value
2022-08-10T00:04:55.116Z,5.30
2022-08-10T00:14:56.776Z,5.27
2022-08-10T00:24:58.455Z,5.23
2022-08-10T00:35:00.045Z,12.43
2022-08-10T00:45:01.561Z,10.77
2022-08-10T00:55:05.358Z,8.13
2022-08-10T01:05:14.493Z,5.07
2022-08-10T01:15:26.847Z,5.53
2022-08-10T01:26:10.531Z,6.10
2022-08-10T01:36:19.375Z,6.37
2022-08-10T01:46:35.888Z,5.80
2022-08-10T01:56:40.339Z,6.20
2022-08-10T02:06:53.342Z,6.07
2022-08-10T02:16:55.427Z,6.27
2022-08-10T02:26:58.021Z,5.83
2022-08-10T02:37:10.837Z,5.80
2022-08-10T02:47:51.567Z,11.03
2022-08-10T02:58:12.658Z,6.53
2022-08-10T03:08:22.589Z,5.80
2022-08-10T03:18:24.964Z,6.20
2022-08-10T03:28:29.579Z,6.30
2022-08-10T03:38:31.112Z,6.40
2022-08-10T03:48:48.842Z,5.90
2022-08-10T03:58:51.336Z,5.90
2022-08-10T04:08:53.024Z,5.70
2022-08-10T04:18:54.522Z,6.80
2022-08-10T04:28:56.292Z,6.20
2022-08-10T04:38:58.159Z,5.90
2022-08-10T04:49:01.855Z,5.70
2022-08-10T04:59:08.617Z,5.40
2022-08-10T05:09:10.117Z,6.10
2022-08-10T05:19:11.832Z,5.60
2022-08-10T05:29:13.314Z,5.97
2022-08-10T05:39:15.325Z,5.23
2022-08-10T05:49:17.271Z,5.10
2022-08-10T06:00:10.977Z,4.57
2022-08-10T06:09:58.555Z,5.20
2022-08-10T06:20:02.283Z,5.50
2022-08-10T06:30:04.231Z,4.20
2022-08-10T06:40:27.486Z,3.03
2022-08-10T06:50:56.506Z,1.40
2022-08-10T07:01:03.000Z,1.77
2022-08-10T07:11:08.825Z,1.70
2022-08-10T07:21:14.838Z,1.90
2022-08-10T07:31:36.089Z,1.83
2022-08-10T07:41:44.233Z,1.70
2022-08-10T07:51:46.768Z,1.52
2022-08-10T08:01:58.075Z,1.42
2022-08-10T08:12:01.014Z,1.30
2022-08-10T08:24:05.628Z,1.70
2022-08-10T08:32:29.432Z,1.65
2022-08-10T08:42:50.763Z,1.67
2022-08-10T08:53:21.154Z,1.85
2022-08-10T09:04:00.796Z,1.50
2022-08-10T09:14:31.369Z,1.40
2022-08-10T09:24:45.010Z,1.48
2022-08-10T09:36:22.287Z,1.38
2022-08-10T09:45:32.100Z,1.55
2022-08-10T09:56:17.848Z,1.40
2022-08-10T10:06:45.880Z,1.30
2022-08-10T10:17:11.111Z,1.55
2022-08-10T10:27:40.612Z,1.40
2022-08-10T10:38:10.205Z,1.13
2022-08-10T10:48:17.680Z,1.20
2022-08-10T10:58:32.923Z,1.20
2022-08-10T11:09:01.850Z,1.15
2022-08-10T11:19:17.179Z,1.80
2022-08-10T11:29:30.827Z,1.08
2022-08-10T11:39:57.141Z,6.25
2022-08-10T11:50:07.162Z,7.75
2022-08-10T12:00:09.387Z,8.65
2022-08-10T12:10:14.591Z,9.77
2022-08-10T12:20:27.721Z,1.95
2022-08-10T12:30:40.885Z,2.10
2022-08-10T12:40:48.689Z,1.80
2022-08-10T12:51:06.755Z,2.10
2022-08-10T13:01:18.544Z,1.50
2022-08-10T13:12:44.677Z,1.83
2022-08-10T13:21:50.501Z,1.75
2022-08-10T13:32:09.269Z,1.73
2022-08-10T13:42:13.936Z,1.52
2022-08-10T13:52:20.919Z,1.30
2022-08-10T14:02:50.575Z,1.30
2022-08-10T14:12:53.745Z,1.60
2022-08-10T14:23:10.342Z,1.20
2022-08-10T14:33:19.244Z,1.33
2022-08-10T14:43:28.687Z,1.50
2022-08-10T14:53:34.987Z,1.40
2022-08-10T15:04:00.740Z,2.10
2022-08-10T15:14:34.124Z,2.17
2022-08-10T15:25:02.147Z,1.80
2022-08-10T15:35:25.489Z,1.80
2022-08-10T15:45:28.146Z,2.10
2022-08-10T15:55:51.579Z,2.15
2022-08-10T16:06:01.484Z,2.63
2022-08-10T16:16:07.442Z,2.50
2022-08-10T16:26:15.104Z,2.90
2022-08-10T16:36:20.883Z,10.47
2022-08-10T16:46:23.118Z,9.90
2022-08-10T16:56:34.114Z,10.67
2022-08-10T17:06:56.575Z,3.07
2022-08-10T17:17:05.472Z,12.80
2022-08-10T17:28:05.633Z,11.57
2022-08-10T17:37:38.321Z,11.73
2022-08-10T17:47:47.819Z,12.23
2022-08-10T17:57:50.257Z,2.93
2022-08-10T18:08:11.984Z,3.10
2022-08-10T18:18:20.350Z,2.60
2022-08-10T18:28:23.054Z,2.80
2022-08-10T18:38:25.821Z,5.27
2022-08-10T18:48:40.411Z,10.17
2022-08-10T18:59:16.967Z,12.07
2022-08-10T19:09:46.712Z,7.53
2022-08-10T19:20:01.890Z,3.73
2022-08-10T19:30:13.380Z,4.30
2022-08-10T19:40:46.431Z,4.63
2022-08-10T19:50:57.876Z,3.13
2022-08-10T20:01:02.318Z,2.17
2022-08-10T20:11:44.370Z,2.43
2022-08-10T20:21:47.265Z,6.10
2022-08-10T20:32:03.901Z,3.20
2022-08-10T20:42:15.953Z,6.00
2022-08-10T20:52:18.444Z,7.70
2022-08-10T21:02:32.938Z,6.90
2022-08-10T21:13:17.184Z,6.73
2022-08-10T21:23:20.366Z,5.20
2022-08-10T21:33:48.986Z,5.50
2022-08-10T21:44:25.651Z,5.87
2022-08-10T21:54:51.524Z,6.27
2022-08-10T22:05:11.729Z,5.00
2022-08-10T22:16:03.162Z,5.00
2022-08-10T22:26:29.724Z,5.57
2022-08-10T22:37:20.365Z,5.43
2022-08-10T22:47:42.952Z,5.73
2022-08-10T22:58:08.717Z,5.93
2022-08-10T23:08:29.613Z,7.47
2022-08-10T23:18:57.030Z,6.10
2022-08-10T23:29:09.646Z,8.37
2022-08-10T23:39:26.933Z,8.90
2022-08-10T23:49:37.129Z,4.90
2022-08-10T23:59:38.814Z,6.13
